createdAt,value
2023-05-13T00:00:24.766Z,11.90
2023-05-13T00:01:24.746Z,11.90
2023-05-13T00:02:24.772Z,11.91
2023-05-13T00:03:24.761Z,11.92
2023-05-13T00:04:24.711Z,11.91
2023-05-13T00:05:24.688Z,11.90
2023-05-13T00:06:24.737Z,11.89
2023-05-13T00:07:24.681Z,11.90
2023-05-13T00:08:24.675Z,11.91
2023-05-13T00:09:24.650Z,11.90
2023-05-13T00:10:24.657Z,11.89
2023-05-13T00:11:24.609Z,11.89
2023-05-13T00:12:24.612Z,11.89
2023-05-13T00:13:24.590Z,11.88
2023-05-13T00:14:24.570Z,11.86
2023-05-13T00:15:24.568Z,11.84
2023-05-13T00:16:23.627Z,11.82
2023-05-13T00:17:24.581Z,11.81
2023-05-13T00:18:24.588Z,11.82
2023-05-13T00:19:24.501Z,11.84
2023-05-13T00:20:24.477Z,11.85
2023-05-13T00:21:24.469Z,11.84
2023-05-13T00:22:23.526Z,11.81
2023-05-13T00:23:24.457Z,11.78
2023-05-13T00:24:24.435Z,11.73
2023-05-13T00:25:24.435Z,11.69
2023-05-13T00:26:24.425Z,11.64
2023-05-13T00:27:24.435Z,11.59
2023-05-13T00:28:24.390Z,11.56
2023-05-13T00:29:24.356Z,11.53
2023-05-13T00:30:24.361Z,11.51
2023-05-13T00:31:24.412Z,11.48
2023-05-13T00:32:24.367Z,11.45
2023-05-13T00:33:24.320Z,11.43
2023-05-13T00:34:24.308Z,11.43
2023-05-13T00:35:24.287Z,11.42
2023-05-13T00:36:24.275Z,11.40
2023-05-13T00:37:24.278Z,11.39
2023-05-13T00:38:24.245Z,11.37
2023-05-13T00:39:24.234Z,11.37
2023-05-13T00:40:24.439Z,11.37
2023-05-13T00:41:24.204Z,11.35
2023-05-13T00:42:24.215Z,11.33
2023-05-13T00:43:24.182Z,11.30
2023-05-13T00:44:24.171Z,11.26
2023-05-13T00:45:24.157Z,11.22
2023-05-13T00:46:24.222Z,11.17
2023-05-13T00:47:24.175Z,11.12
2023-05-13T00:48:24.126Z,11.07
2023-05-13T00:49:24.102Z,11.02
2023-05-13T00:50:24.369Z,10.98
2023-05-13T00:51:24.084Z,10.94
2023-05-13T00:52:24.077Z,10.90
2023-05-13T00:53:24.047Z,10.87
2023-05-13T00:54:24.029Z,10.84
2023-05-13T00:55:24.025Z,10.82
2023-05-13T00:56:24.017Z,10.80
2023-05-13T00:57:23.996Z,10.79
2023-05-13T00:58:23.976Z,10.77
2023-05-13T00:59:23.973Z,10.74
2023-05-13T01:00:23.945Z,10.71
2023-05-13T01:01:24.008Z,10.68
2023-05-13T01:02:23.963Z,10.66
2023-05-13T01:03:23.975Z,10.65
2023-05-13T01:04:23.881Z,10.64
2023-05-13T01:05:23.881Z,10.62
2023-05-13T01:06:23.882Z,10.61
2023-05-13T01:07:23.862Z,10.62
2023-05-13T01:08:23.830Z,10.63
2023-05-13T01:09:23.828Z,10.64
2023-05-13T01:10:23.959Z,10.65
2023-05-13T01:11:23.827Z,10.67
2023-05-13T01:12:23.789Z,10.68
2023-05-13T01:13:23.805Z,10.68
2023-05-13T01:14:23.759Z,10.69
2023-05-13T01:15:23.763Z,10.69
2023-05-13T01:16:23.780Z,10.69
2023-05-13T01:17:23.742Z,10.69
2023-05-13T01:18:23.722Z,10.69
2023-05-13T01:19:23.688Z,10.69
2023-05-13T01:20:24.160Z,10.69
2023-05-13T01:21:23.653Z,10.70
2023-05-13T01:22:23.643Z,10.74
2023-05-13T01:23:23.624Z,10.78
2023-05-13T01:24:23.651Z,10.81
2023-05-13T01:25:23.612Z,10.83
2023-05-13T01:26:23.580Z,10.83
2023-05-13T01:27:23.576Z,10.83
2023-05-13T01:28:23.571Z,10.83
2023-05-13T01:29:23.564Z,10.83
2023-05-13T01:30:23.867Z,10.83
2023-05-13T01:31:23.587Z,10.83
2023-05-13T01:32:23.538Z,10.83
2023-05-13T01:33:23.001Z,10.83
2023-05-13T01:34:23.477Z,10.81
2023-05-13T01:35:23.477Z,10.82
2023-05-13T01:36:23.463Z,10.81
2023-05-13T01:37:23.454Z,10.81
2023-05-13T01:38:23.431Z,10.80
2023-05-13T01:39:23.432Z,10.78
2023-05-13T01:40:32.343Z,10.77
2023-05-13T01:41:24.440Z,10.75
2023-05-13T01:42:23.367Z,10.73
2023-05-13T01:43:23.373Z,10.72
2023-05-13T01:44:23.363Z,10.70
2023-05-13T01:45:23.328Z,10.68
2023-05-13T01:46:23.349Z,10.66
2023-05-13T01:47:23.366Z,10.64
2023-05-13T01:48:23.289Z,10.62
2023-05-13T01:49:23.291Z,10.59
2023-05-13T01:50:23.548Z,10.58
2023-05-13T01:51:23.259Z,10.55
2023-05-13T01:52:23.252Z,10.52
2023-05-13T01:53:23.253Z,10.48
2023-05-13T01:54:23.261Z,10.45
2023-05-13T01:55:21.890Z,10.42
2023-05-13T01:56:23.190Z,10.38
2023-05-13T01:57:23.200Z,10.35
2023-05-13T01:58:23.178Z,10.32
2023-05-13T01:59:23.430Z,10.28
2023-05-13T02:00:23.239Z,10.25
2023-05-13T02:01:22.707Z,10.21
2023-05-13T02:02:23.925Z,10.17
2023-05-13T02:03:23.688Z,10.13
2023-05-13T02:04:21.835Z,10.08
2023-05-13T02:05:23.080Z,10.04
2023-05-13T02:06:23.077Z,9.98
2023-05-13T02:07:23.029Z,9.90
2023-05-13T02:08:23.029Z,9.83
2023-05-13T02:09:23.006Z,9.75
2023-05-13T02:10:23.179Z,9.68
2023-05-13T02:11:22.977Z,9.62
2023-05-13T02:12:22.965Z,9.55
2023-05-13T02:13:22.968Z,9.50
2023-05-13T02:14:22.931Z,9.45
2023-05-13T02:15:22.913Z,9.39
2023-05-13T02:16:22.981Z,9.35
2023-05-13T02:17:23.045Z,9.32
2023-05-13T02:18:22.919Z,9.28
2023-05-13T02:19:22.890Z,9.23
2023-05-13T02:20:23.173Z,9.18
2023-05-13T02:21:22.850Z,9.15
2023-05-13T02:22:22.833Z,9.12
2023-05-13T02:23:22.816Z,9.09
2023-05-13T02:24:22.799Z,9.04
2023-05-13T02:25:22.789Z,9.00
2023-05-13T02:26:22.783Z,8.96
2023-05-13T02:27:22.760Z,8.92
2023-05-13T02:28:21.389Z,8.88
2023-05-13T02:29:22.734Z,8.84
2023-05-13T02:30:22.946Z,8.81
2023-05-13T02:31:22.726Z,8.79
2023-05-13T02:32:22.696Z,8.77
2023-05-13T02:33:22.681Z,8.75
2023-05-13T02:34:22.674Z,8.72
2023-05-13T02:35:22.674Z,8.69
2023-05-13T02:36:21.647Z,8.66
2023-05-13T02:37:22.632Z,8.62
2023-05-13T02:38:21.673Z,8.58
2023-05-13T02:39:22.616Z,8.56
2023-05-13T02:40:22.972Z,8.54
2023-05-13T02:41:22.584Z,8.52
2023-05-13T02:42:22.572Z,8.51
2023-05-13T02:43:22.543Z,8.49
2023-05-13T02:44:22.520Z,8.46
2023-05-13T02:45:22.521Z,8.44
2023-05-13T02:46:22.644Z,8.41
2023-05-13T02:47:22.516Z,8.39
2023-05-13T02:48:22.477Z,8.37
2023-05-13T02:49:22.451Z,8.34
2023-05-13T02:50:22.682Z,8.30
2023-05-13T02:51:22.445Z,8.26
2023-05-13T02:52:22.410Z,8.22
2023-05-13T02:53:22.404Z,8.19
2023-05-13T02:54:22.401Z,8.17
2023-05-13T02:55:22.417Z,8.15
2023-05-13T02:56:22.380Z,8.12
2023-05-13T02:57:22.343Z,8.09
2023-05-13T02:58:22.341Z,8.06
2023-05-13T02:59:22.350Z,8.03
2023-05-13T03:00:22.536Z,8.01
2023-05-13T03:01:22.356Z,7.99
2023-05-13T03:02:22.349Z,7.97
2023-05-13T03:03:22.410Z,7.96
2023-05-13T03:04:22.270Z,7.94
2023-05-13T03:05:22.248Z,7.92
2023-05-13T03:06:22.252Z,7.89
2023-05-13T03:07:22.211Z,7.84
2023-05-13T03:08:22.207Z,7.80
2023-05-13T03:09:22.195Z,7.76
2023-05-13T03:10:22.349Z,7.73
2023-05-13T03:11:22.164Z,7.70
2023-05-13T03:12:22.161Z,7.66
2023-05-13T03:13:22.136Z,7.63
2023-05-13T03:14:22.116Z,7.63
2023-05-13T03:15:22.131Z,7.61
2023-05-13T03:16:22.130Z,7.58
2023-05-13T03:17:22.144Z,7.55
2023-05-13T03:18:22.125Z,7.51
2023-05-13T03:19:22.051Z,7.49
2023-05-13T03:20:22.268Z,7.46
2023-05-13T03:21:22.033Z,7.44
2023-05-13T03:22:22.042Z,7.45
2023-05-13T03:23:22.000Z,7.44
2023-05-13T03:24:21.990Z,7.42
2023-05-13T03:25:21.991Z,7.40
2023-05-13T03:26:21.968Z,7.38
2023-05-13T03:27:20.976Z,7.37
2023-05-13T03:28:21.946Z,7.36
2023-05-13T03:29:20.980Z,7.34
2023-05-13T03:30:22.174Z,7.32
2023-05-13T03:31:21.409Z,7.29
2023-05-13T03:32:21.890Z,7.26
2023-05-13T03:33:21.865Z,7.23
2023-05-13T03:34:21.877Z,7.21
2023-05-13T03:35:21.012Z,7.20
2023-05-13T03:36:21.829Z,7.19
2023-05-13T03:37:21.806Z,7.17
2023-05-13T03:38:21.783Z,7.15
2023-05-13T03:39:21.792Z,7.11
2023-05-13T03:40:21.985Z,7.07
2023-05-13T03:41:21.753Z,7.04
2023-05-13T03:42:21.754Z,7.01
2023-05-13T03:43:21.757Z,6.98
2023-05-13T03:44:21.736Z,6.94
2023-05-13T03:45:21.702Z,6.94
2023-05-13T03:46:21.737Z,6.94
2023-05-13T03:47:21.694Z,6.94
2023-05-13T03:48:20.303Z,6.93
2023-05-13T03:49:21.679Z,6.91
2023-05-13T03:50:21.798Z,6.91
2023-05-13T03:51:21.624Z,6.92
2023-05-13T03:52:21.613Z,6.92
2023-05-13T03:53:21.620Z,6.90
2023-05-13T03:54:21.591Z,6.89
2023-05-13T03:55:21.558Z,6.89
2023-05-13T03:56:21.588Z,6.89
2023-05-13T03:57:21.556Z,6.89
2023-05-13T03:58:21.546Z,6.89
2023-05-13T03:59:21.515Z,6.89
2023-05-13T04:00:21.716Z,6.89
2023-05-13T04:01:21.495Z,6.89
2023-05-13T04:02:21.562Z,6.90
2023-05-13T04:03:21.554Z,6.91
2023-05-13T04:04:20.000Z,6.92
2023-05-13T04:05:21.475Z,6.93
2023-05-13T04:06:21.423Z,6.94
2023-05-13T04:07:21.408Z,6.94
2023-05-13T04:08:21.394Z,6.94
2023-05-13T04:09:21.373Z,6.93
2023-05-13T04:10:21.602Z,6.93
2023-05-13T04:11:21.363Z,6.93
2023-05-13T04:12:21.364Z,6.93
2023-05-13T04:13:21.329Z,6.92
2023-05-13T04:14:21.315Z,6.91
2023-05-13T04:15:21.294Z,6.90
2023-05-13T04:16:21.351Z,6.90
2023-05-13T04:17:21.339Z,6.89
2023-05-13T04:18:21.259Z,6.89
2023-05-13T04:19:21.246Z,6.87
2023-05-13T04:20:21.367Z,6.87
2023-05-13T04:21:21.242Z,6.86
2023-05-13T04:22:21.210Z,6.85
2023-05-13T04:23:21.188Z,6.85
2023-05-13T04:24:21.182Z,6.86
2023-05-13T04:25:21.171Z,6.87
2023-05-13T04:26:21.175Z,6.87
2023-05-13T04:27:21.137Z,6.86
2023-05-13T04:28:21.126Z,6.85
2023-05-13T04:29:21.128Z,6.85
2023-05-13T04:30:21.233Z,6.85
2023-05-13T04:31:21.112Z,6.85
2023-05-13T04:32:21.105Z,6.85
2023-05-13T04:33:21.073Z,6.85
2023-05-13T04:34:21.040Z,6.86
2023-05-13T04:35:21.053Z,6.87
2023-05-13T04:36:21.015Z,6.88
2023-05-13T04:37:21.005Z,6.89
2023-05-13T04:38:21.003Z,6.91
2023-05-13T04:39:20.982Z,6.93
2023-05-13T04:40:21.205Z,6.95
2023-05-13T04:41:20.939Z,6.96
2023-05-13T04:42:20.951Z,6.98
2023-05-13T04:43:20.924Z,6.99
2023-05-13T04:44:19.739Z,7.01
2023-05-13T04:45:20.908Z,7.02
2023-05-13T04:46:20.966Z,7.02
2023-05-13T04:47:20.893Z,7.02
2023-05-13T04:48:20.889Z,7.05
2023-05-13T04:49:20.858Z,7.14
2023-05-13T04:50:20.965Z,7.29
2023-05-13T04:51:20.814Z,7.46
2023-05-13T04:52:20.802Z,7.63
2023-05-13T04:53:20.796Z,7.81
2023-05-13T04:54:20.797Z,7.97
2023-05-13T04:55:20.274Z,8.13
2023-05-13T04:56:19.819Z,8.27
2023-05-13T04:57:20.735Z,8.42
2023-05-13T04:58:20.726Z,8.55
2023-05-13T04:59:20.730Z,8.69
2023-05-13T05:00:20.961Z,8.84
2023-05-13T05:01:20.721Z,9.01
2023-05-13T05:02:20.672Z,9.18
2023-05-13T05:03:20.693Z,9.34
2023-05-13T05:04:20.659Z,9.46
2023-05-13T05:05:20.633Z,9.64
2023-05-13T05:06:20.617Z,9.86
2023-05-13T05:07:20.592Z,10.08
2023-05-13T05:08:20.595Z,10.27
2023-05-13T05:09:20.611Z,10.41
2023-05-13T05:10:20.811Z,10.48
2023-05-13T05:11:20.560Z,10.63
2023-05-13T05:12:20.532Z,10.80
2023-05-13T05:13:20.528Z,10.95
2023-05-13T05:14:20.501Z,11.07
2023-05-13T05:15:20.485Z,11.17
2023-05-13T05:16:20.475Z,11.38
2023-05-13T05:17:20.490Z,11.59
2023-05-13T05:18:20.533Z,11.78
2023-05-13T05:19:20.489Z,12.01
2023-05-13T05:20:20.554Z,12.19
2023-05-13T05:21:20.418Z,12.44
2023-05-13T05:22:20.395Z,12.53
2023-05-13T05:23:20.400Z,12.49
2023-05-13T05:24:20.380Z,12.33
2023-05-13T05:25:20.347Z,12.04
2023-05-13T05:26:20.338Z,11.76
2023-05-13T05:27:20.353Z,11.45
2023-05-13T05:28:20.325Z,11.18
2023-05-13T05:29:20.303Z,10.94
2023-05-13T05:30:20.507Z,10.79
2023-05-13T05:31:20.292Z,10.59
2023-05-13T05:32:20.310Z,10.43
2023-05-13T05:33:20.257Z,10.30
2023-05-13T05:34:20.227Z,10.20
2023-05-13T05:35:20.221Z,10.14
2023-05-13T05:36:20.203Z,10.08
2023-05-13T05:37:20.194Z,10.02
2023-05-13T05:38:20.193Z,9.94
2023-05-13T05:39:20.166Z,9.88
2023-05-13T05:40:20.397Z,9.84
2023-05-13T05:41:20.131Z,9.85
2023-05-13T05:42:20.131Z,9.86
2023-05-13T05:43:20.130Z,9.87
2023-05-13T05:44:20.103Z,9.85
2023-05-13T05:45:19.129Z,9.83
2023-05-13T05:46:20.104Z,9.80
2023-05-13T05:47:19.140Z,9.81
2023-05-13T05:48:20.046Z,9.82
2023-05-13T05:49:20.065Z,9.83
2023-05-13T05:50:20.337Z,9.85
2023-05-13T05:51:20.017Z,9.87
2023-05-13T05:52:20.017Z,9.90
2023-05-13T05:53:19.993Z,9.94
2023-05-13T05:54:19.958Z,9.98
2023-05-13T05:55:19.942Z,10.02
2023-05-13T05:56:19.933Z,10.11
2023-05-13T05:57:19.920Z,10.23
2023-05-13T05:58:19.892Z,10.34
2023-05-13T05:59:19.912Z,10.45
2023-05-13T06:00:19.090Z,10.57
2023-05-13T06:01:18.912Z,10.68
2023-05-13T06:02:19.867Z,10.80
2023-05-13T06:03:19.890Z,10.90
2023-05-13T06:04:19.844Z,11.01
2023-05-13T06:05:19.806Z,11.11
2023-05-13T06:06:19.804Z,11.20
2023-05-13T06:07:19.788Z,11.28
2023-05-13T06:08:19.756Z,11.35
2023-05-13T06:09:19.753Z,11.43
2023-05-13T06:10:19.876Z,11.49
2023-05-13T06:11:19.742Z,11.55
2023-05-13T06:12:19.716Z,11.60
2023-05-13T06:13:19.711Z,11.65
2023-05-13T06:14:19.692Z,11.72
2023-05-13T06:15:19.687Z,11.79
2023-05-13T06:16:19.701Z,11.85
2023-05-13T06:17:19.651Z,11.91
2023-05-13T06:18:19.623Z,11.97
2023-05-13T06:19:19.625Z,12.04
2023-05-13T06:20:19.912Z,12.13
2023-05-13T06:21:19.590Z,12.21
2023-05-13T06:22:19.574Z,12.29
2023-05-13T06:23:19.554Z,12.38
2023-05-13T06:24:19.558Z,12.52
2023-05-13T06:25:19.543Z,12.76
2023-05-13T06:26:19.526Z,13.14
2023-05-13T06:27:19.516Z,13.64
2023-05-13T06:28:19.512Z,14.22
2023-05-13T06:29:19.483Z,14.70
2023-05-13T06:30:19.662Z,15.23
2023-05-13T06:31:19.514Z,15.58
2023-05-13T06:32:19.433Z,15.82
2023-05-13T06:33:19.459Z,16.02
2023-05-13T06:34:19.409Z,16.21
2023-05-13T06:35:19.403Z,16.45
2023-05-13T06:36:19.379Z,16.74
2023-05-13T06:37:19.358Z,16.89
2023-05-13T06:38:19.348Z,17.02
2023-05-13T06:39:19.346Z,17.26
2023-05-13T06:40:19.471Z,17.33
2023-05-13T06:41:19.318Z,17.55
2023-05-13T06:42:19.304Z,17.59
2023-05-13T06:43:19.276Z,17.79
2023-05-13T06:44:19.279Z,18.07
2023-05-13T06:45:19.256Z,18.24
2023-05-13T06:46:19.279Z,18.45
2023-05-13T06:47:20.214Z,18.81
2023-05-13T06:48:19.229Z,18.88
2023-05-13T06:49:19.207Z,18.83
2023-05-13T06:50:19.369Z,18.68
2023-05-13T06:51:19.174Z,18.56
2023-05-13T06:52:19.166Z,18.40
2023-05-13T06:53:19.156Z,18.57
2023-05-13T06:54:19.152Z,18.80
2023-05-13T06:55:19.207Z,18.81
2023-05-13T06:56:19.117Z,18.72
2023-05-13T06:57:19.406Z,18.69
2023-05-13T06:58:19.086Z,18.63
2023-05-13T06:59:19.155Z,18.60
2023-05-13T07:00:19.197Z,18.67
2023-05-13T07:01:19.126Z,18.83
2023-05-13T07:02:19.018Z,19.03
2023-05-13T07:03:19.142Z,19.26
2023-05-13T07:04:19.128Z,19.33
2023-05-13T07:05:18.987Z,19.33
2023-05-13T07:06:18.542Z,19.33
2023-05-13T07:07:18.953Z,19.39
2023-05-13T07:08:19.010Z,19.41
2023-05-13T07:09:18.915Z,19.38
2023-05-13T07:10:18.943Z,19.36
2023-05-13T07:11:19.448Z,19.53
2023-05-13T07:12:18.911Z,19.47
2023-05-13T07:13:18.576Z,19.24
2023-05-13T07:14:17.597Z,19.28
2023-05-13T07:15:18.928Z,19.44
2023-05-13T07:16:18.836Z,19.80
2023-05-13T07:17:18.874Z,20.00
2023-05-13T07:18:17.609Z,19.86
2023-05-13T07:19:18.837Z,19.91
2023-05-13T07:20:18.806Z,19.96
2023-05-13T07:21:18.814Z,19.86
2023-05-13T07:22:18.754Z,19.99
2023-05-13T07:23:18.727Z,19.94
2023-05-13T07:24:18.714Z,19.84
2023-05-13T07:25:18.717Z,19.92
2023-05-13T07:26:18.687Z,19.80
2023-05-13T07:27:18.687Z,19.99
2023-05-13T07:28:18.665Z,20.13
2023-05-13T07:29:18.659Z,20.27
2023-05-13T07:30:18.643Z,20.18
2023-05-13T07:31:18.753Z,20.22
2023-05-13T07:32:18.838Z,20.39
2023-05-13T07:33:18.603Z,20.66
2023-05-13T07:34:18.587Z,20.86
2023-05-13T07:35:18.657Z,20.84
2023-05-13T07:36:18.564Z,20.76
2023-05-13T07:37:18.535Z,20.70
2023-05-13T07:38:18.537Z,20.75
2023-05-13T07:39:18.510Z,20.52
2023-05-13T07:40:18.520Z,20.52
2023-05-13T07:41:18.512Z,20.71
2023-05-13T07:42:18.487Z,20.74
2023-05-13T07:43:18.469Z,20.78
2023-05-13T07:44:18.472Z,20.74
2023-05-13T07:45:18.448Z,20.84
2023-05-13T07:46:18.434Z,20.60
2023-05-13T07:47:18.454Z,20.54
2023-05-13T07:48:18.405Z,20.40
2023-05-13T07:49:18.407Z,20.25
2023-05-13T07:50:18.389Z,20.16
2023-05-13T07:51:18.402Z,20.09
2023-05-13T07:52:18.353Z,20.27
2023-05-13T07:53:19.747Z,20.38
2023-05-13T07:54:18.330Z,20.32
2023-05-13T07:55:18.326Z,20.40
2023-05-13T07:56:18.301Z,20.45
2023-05-13T07:57:18.292Z,20.67
2023-05-13T07:58:18.259Z,20.84
2023-05-13T07:59:18.258Z,20.87
2023-05-13T08:00:18.247Z,20.77
2023-05-13T08:01:18.224Z,20.71
2023-05-13T08:02:18.244Z,20.79
2023-05-13T08:03:18.242Z,20.81
2023-05-13T08:04:18.375Z,20.78
2023-05-13T08:05:18.189Z,21.16
2023-05-13T08:06:17.203Z,21.59
2023-05-13T08:07:18.147Z,21.56
2023-05-13T08:08:18.139Z,21.41
2023-05-13T08:09:18.141Z,21.57
2023-05-13T08:10:18.125Z,21.70
2023-05-13T08:11:18.093Z,21.53
2023-05-13T08:12:18.076Z,21.55
2023-05-13T08:13:18.084Z,21.56
2023-05-13T08:14:16.736Z,21.81
2023-05-13T08:15:18.043Z,22.16
2023-05-13T08:16:18.050Z,22.40
2023-05-13T08:17:18.017Z,22.39
2023-05-13T08:18:18.012Z,22.28
2023-05-13T08:19:18.019Z,22.08
2023-05-13T08:20:17.976Z,22.19
2023-05-13T08:21:17.953Z,22.23
2023-05-13T08:22:17.947Z,22.19
2023-05-13T08:23:17.954Z,22.04
2023-05-13T08:24:17.924Z,21.92
2023-05-13T08:25:17.904Z,21.84
2023-05-13T08:26:17.897Z,21.77
2023-05-13T08:27:17.871Z,21.57
2023-05-13T08:28:17.879Z,21.88
2023-05-13T08:29:17.862Z,21.86
2023-05-13T08:30:17.843Z,21.99
2023-05-13T08:31:17.858Z,22.34
2023-05-13T08:32:17.893Z,22.27
2023-05-13T08:33:17.812Z,22.38
2023-05-13T08:34:17.789Z,22.55
2023-05-13T08:35:17.784Z,22.36
2023-05-13T08:36:17.768Z,22.28
2023-05-13T08:37:17.761Z,21.92
2023-05-13T08:38:17.743Z,21.87
2023-05-13T08:39:17.727Z,21.97
2023-05-13T08:40:17.718Z,22.26
2023-05-13T08:41:18.962Z,22.51
2023-05-13T08:42:17.707Z,22.63
2023-05-13T08:43:17.176Z,22.74
2023-05-13T08:44:17.655Z,22.81
2023-05-13T08:45:17.652Z,22.77
2023-05-13T08:46:17.669Z,22.63
2023-05-13T08:47:17.705Z,22.29
2023-05-13T08:48:17.683Z,22.02
2023-05-13T08:49:17.597Z,22.30
2023-05-13T08:50:17.584Z,22.49
2023-05-13T08:51:17.566Z,22.63
2023-05-13T08:52:17.570Z,22.74
2023-05-13T08:53:17.547Z,22.66
2023-05-13T08:54:17.550Z,22.81
2023-05-13T08:55:17.527Z,23.01
2023-05-13T08:56:17.536Z,22.95
2023-05-13T08:57:17.514Z,22.82
2023-05-13T08:58:17.487Z,23.08
2023-05-13T08:59:17.481Z,23.09
2023-05-13T09:00:19.993Z,23.18
2023-05-13T09:01:17.477Z,23.46
2023-05-13T09:02:17.435Z,23.63
2023-05-13T09:03:17.414Z,23.72
2023-05-13T09:04:17.404Z,23.64
2023-05-13T09:05:17.414Z,23.42
2023-05-13T09:06:17.387Z,23.28
2023-05-13T09:07:17.368Z,23.33
2023-05-13T09:08:17.355Z,23.45
2023-05-13T09:09:17.337Z,23.39
2023-05-13T09:10:17.329Z,23.05
2023-05-13T09:11:17.342Z,23.00
2023-05-13T09:12:17.298Z,23.01
2023-05-13T09:13:17.292Z,23.12
2023-05-13T09:14:17.277Z,23.46
2023-05-13T09:15:17.291Z,23.38
2023-05-13T09:16:17.281Z,23.20
2023-05-13T09:17:17.255Z,23.50
2023-05-13T09:18:18.868Z,23.58
2023-05-13T09:19:17.352Z,23.59
2023-05-13T09:20:17.204Z,23.58
2023-05-13T09:21:17.188Z,23.69
2023-05-13T09:22:17.171Z,23.99
2023-05-13T09:23:16.027Z,24.04
2023-05-13T09:24:17.141Z,24.24
2023-05-13T09:25:17.158Z,23.87
2023-05-13T09:26:17.113Z,23.90
2023-05-13T09:27:17.103Z,24.09
2023-05-13T09:28:17.108Z,24.13
2023-05-13T09:29:17.110Z,24.26
2023-05-13T09:30:17.092Z,24.45
2023-05-13T09:31:17.106Z,24.76
2023-05-13T09:32:17.043Z,24.88
2023-05-13T09:33:17.107Z,25.11
2023-05-13T09:34:17.047Z,25.39
2023-05-13T09:35:16.050Z,25.43
2023-05-13T09:36:16.049Z,25.06
2023-05-13T09:37:16.970Z,24.63
2023-05-13T09:38:16.972Z,24.35
2023-05-13T09:39:15.562Z,24.32
2023-05-13T09:40:16.950Z,24.35
2023-05-13T09:41:15.984Z,24.12
2023-05-13T09:42:15.990Z,24.00
2023-05-13T09:43:16.929Z,23.79
2023-05-13T09:44:16.921Z,24.07
2023-05-13T09:45:16.891Z,24.27
2023-05-13T09:46:16.894Z,24.31
2023-05-13T09:47:16.912Z,24.24
2023-05-13T09:48:16.868Z,24.17
2023-05-13T09:49:16.839Z,24.04
2023-05-13T09:50:16.822Z,23.88
2023-05-13T09:51:16.822Z,24.00
2023-05-13T09:52:16.789Z,24.26
2023-05-13T09:53:16.791Z,24.37
2023-05-13T09:54:16.779Z,24.49
2023-05-13T09:55:16.759Z,24.65
2023-05-13T09:56:16.742Z,24.90
2023-05-13T09:57:16.773Z,24.76
2023-05-13T09:58:16.744Z,24.74
2023-05-13T09:59:16.738Z,24.76
2023-05-13T10:00:28.940Z,24.44
2023-05-13T10:01:17.742Z,24.07
2023-05-13T10:02:16.693Z,24.00
2023-05-13T10:03:16.657Z,23.73
2023-05-13T10:04:16.736Z,23.77
2023-05-13T10:05:16.646Z,23.97
2023-05-13T10:06:16.611Z,24.29
2023-05-13T10:07:16.632Z,24.45
2023-05-13T10:08:16.601Z,24.73
2023-05-13T10:09:16.578Z,24.93
2023-05-13T10:10:16.138Z,24.86
2023-05-13T10:11:16.564Z,25.03
2023-05-13T10:12:16.558Z,25.23
2023-05-13T10:13:16.592Z,25.30
2023-05-13T10:14:16.519Z,25.17
2023-05-13T10:15:16.520Z,25.31
2023-05-13T10:16:16.538Z,25.32
2023-05-13T10:17:16.495Z,25.18
2023-05-13T10:18:16.517Z,24.50
2023-05-13T10:19:16.568Z,24.34
2023-05-13T10:20:16.441Z,24.67
2023-05-13T10:21:16.453Z,24.86
2023-05-13T10:22:16.414Z,25.02
2023-05-13T10:23:16.427Z,25.19
2023-05-13T10:24:16.382Z,25.49
2023-05-13T10:25:16.383Z,25.88
2023-05-13T10:26:16.372Z,25.38
2023-05-13T10:27:16.342Z,25.47
2023-05-13T10:28:16.324Z,25.36
2023-05-13T10:29:16.336Z,25.62
2023-05-13T10:30:16.344Z,26.04
2023-05-13T10:31:16.347Z,25.91
2023-05-13T10:32:16.331Z,25.55
2023-05-13T10:33:16.370Z,25.31
2023-05-13T10:34:16.270Z,25.30
2023-05-13T10:35:16.257Z,25.31
2023-05-13T10:36:16.311Z,24.84
2023-05-13T10:37:16.223Z,24.71
2023-05-13T10:38:16.220Z,24.71
2023-05-13T10:39:16.219Z,24.89
2023-05-13T10:40:16.384Z,24.81
2023-05-13T10:41:16.171Z,25.03
2023-05-13T10:42:16.166Z,25.26
2023-05-13T10:43:16.145Z,25.61
2023-05-13T10:44:16.202Z,25.51
2023-05-13T10:45:16.136Z,25.56
2023-05-13T10:46:16.121Z,25.53
2023-05-13T10:47:15.622Z,25.55
2023-05-13T10:48:16.258Z,25.56
2023-05-13T10:49:16.069Z,25.22
2023-05-13T10:50:16.071Z,24.76
2023-05-13T10:51:16.049Z,24.52
2023-05-13T10:52:16.027Z,24.64
2023-05-13T10:53:16.024Z,24.52
2023-05-13T10:54:16.016Z,23.51
2023-05-13T10:55:16.000Z,22.87
2023-05-13T10:56:15.486Z,22.94
2023-05-13T10:57:17.733Z,23.48
2023-05-13T10:58:15.959Z,23.05
2023-05-13T10:59:15.959Z,22.50
2023-05-13T11:00:16.166Z,22.06
2023-05-13T11:01:16.009Z,22.60
2023-05-13T11:02:15.431Z,22.49
2023-05-13T11:03:16.016Z,22.00
2023-05-13T11:04:15.911Z,22.19
2023-05-13T11:05:15.904Z,22.71
2023-05-13T11:06:15.887Z,22.72
2023-05-13T11:07:15.846Z,22.23
2023-05-13T11:08:14.884Z,22.05
2023-05-13T11:09:14.906Z,22.35
2023-05-13T11:10:15.876Z,22.44
2023-05-13T11:11:15.787Z,22.28
2023-05-13T11:12:15.790Z,22.66
2023-05-13T11:13:15.752Z,23.21
2023-05-13T11:14:15.786Z,23.71
2023-05-13T11:15:15.750Z,24.01
2023-05-13T11:16:15.785Z,24.29
2023-05-13T11:17:15.715Z,24.17
2023-05-13T11:18:15.718Z,24.59
2023-05-13T11:19:15.793Z,25.16
2023-05-13T11:20:15.676Z,25.53
2023-05-13T11:21:15.657Z,25.52
2023-05-13T11:22:15.640Z,25.37
2023-05-13T11:23:15.647Z,25.40
2023-05-13T11:24:15.644Z,25.58
2023-05-13T11:25:15.626Z,25.84
2023-05-13T11:26:15.595Z,26.05
2023-05-13T11:27:15.578Z,25.79
2023-05-13T11:28:15.589Z,24.98
2023-05-13T11:29:15.554Z,24.95
2023-05-13T11:30:15.532Z,25.19
2023-05-13T11:31:15.536Z,25.35
2023-05-13T11:32:15.507Z,24.89
2023-05-13T11:33:15.507Z,24.28
2023-05-13T11:34:15.484Z,24.36
2023-05-13T11:35:15.485Z,24.62
2023-05-13T11:36:15.465Z,25.15
2023-05-13T11:37:15.459Z,25.43
2023-05-13T11:38:15.456Z,25.53
2023-05-13T11:39:15.420Z,25.25
2023-05-13T11:40:15.759Z,24.17
2023-05-13T11:41:15.112Z,23.47
2023-05-13T11:42:16.443Z,22.99
2023-05-13T11:43:15.404Z,22.92
2023-05-13T11:44:15.375Z,22.62
2023-05-13T11:45:15.365Z,22.37
2023-05-13T11:46:15.391Z,22.02
2023-05-13T11:47:15.330Z,21.81
2023-05-13T11:48:15.315Z,21.61
2023-05-13T11:49:15.289Z,21.43
2023-05-13T11:50:15.295Z,21.28
2023-05-13T11:51:17.333Z,21.18
2023-05-13T11:52:15.284Z,20.96
2023-05-13T11:53:15.253Z,20.76
2023-05-13T11:54:15.219Z,20.66
2023-05-13T11:55:15.216Z,20.52
2023-05-13T11:56:15.211Z,20.33
2023-05-13T11:57:15.147Z,20.14
2023-05-13T11:58:15.198Z,20.05
2023-05-13T11:59:15.155Z,20.01
2023-05-13T12:00:15.144Z,19.94
2023-05-13T12:01:15.136Z,19.92
2023-05-13T12:02:14.295Z,19.93
2023-05-13T12:03:15.157Z,19.99
2023-05-13T12:04:15.097Z,20.05
2023-05-13T12:05:15.181Z,20.12
2023-05-13T12:06:15.084Z,20.16
2023-05-13T12:07:14.110Z,20.24
2023-05-13T12:08:14.117Z,20.33
2023-05-13T12:09:15.042Z,20.42
2023-05-13T12:10:15.026Z,20.51
2023-05-13T12:11:15.004Z,20.54
2023-05-13T12:12:15.007Z,20.61
2023-05-13T12:13:14.990Z,20.73
2023-05-13T12:14:14.977Z,20.85
2023-05-13T12:15:14.985Z,20.97
2023-05-13T12:16:14.971Z,21.10
2023-05-13T12:17:14.935Z,21.17
2023-05-13T12:18:15.004Z,21.22
2023-05-13T12:19:15.103Z,21.58
2023-05-13T12:20:14.927Z,21.88
2023-05-13T12:21:14.883Z,22.03
2023-05-13T12:22:14.864Z,22.17
2023-05-13T12:23:14.866Z,22.18
2023-05-13T12:24:14.875Z,22.60
2023-05-13T12:25:14.853Z,22.84
2023-05-13T12:26:14.836Z,22.74
2023-05-13T12:27:14.817Z,22.69
2023-05-13T12:28:14.828Z,23.10
2023-05-13T12:29:14.834Z,23.26
2023-05-13T12:30:14.557Z,23.18
2023-05-13T12:31:14.831Z,23.44
2023-05-13T12:32:14.792Z,23.52
2023-05-13T12:33:14.763Z,23.39
2023-05-13T12:34:14.735Z,23.97
2023-05-13T12:35:15.203Z,24.23
2023-05-13T12:36:14.725Z,24.55
2023-05-13T12:37:14.681Z,24.73
2023-05-13T12:38:14.651Z,25.09
2023-05-13T12:39:14.637Z,25.32
2023-05-13T12:40:14.623Z,24.95
2023-05-13T12:41:14.600Z,24.92
2023-05-13T12:42:14.602Z,24.79
2023-05-13T12:43:14.575Z,25.13
2023-05-13T12:44:14.559Z,25.44
2023-05-13T12:45:14.553Z,25.52
2023-05-13T12:46:14.584Z,25.68
2023-05-13T12:47:14.519Z,25.84
2023-05-13T12:48:14.555Z,25.47
2023-05-13T12:49:14.498Z,25.46
2023-05-13T12:50:14.487Z,25.18
2023-05-13T12:51:14.462Z,25.21
2023-05-13T12:52:14.453Z,25.48
2023-05-13T12:53:13.518Z,25.59
2023-05-13T12:54:14.445Z,25.65
2023-05-13T12:55:14.424Z,25.61
2023-05-13T12:56:14.402Z,25.15
2023-05-13T12:57:14.376Z,25.12
2023-05-13T12:58:14.374Z,24.87
2023-05-13T12:59:14.518Z,24.23